sensor_id;sensor_type;location;lat;lon;timestamp;pressure;altitude;pressure_sealevel;temperature;humidity
75312;BME280;63906;55.686;37.532;2023-08-01T00:03:35;98966.06;;;16.00;85.63
75312;BME280;63906;55.686;37.532;2023-08-01T00:08:35;98946.28;;;15.91;85.79
75312;BME280;63906;55.686;37.532;2023-08-01T00:13:36;98909.25;;;15.68;85.93
75312;BME280;63906;55.686;37.532;2023-08-01T00:18:36;98934.03;;;15.73;86.10
75312;BME280;63906;55.686;37.532;2023-08-01T00:23:37;98969.28;;;15.85;86.21
75312;BME280;63906;55.686;37.532;2023-08-01T00:28:38;98964.22;;;15.84;86.18
75312;BME280;63906;55.686;37.532;2023-08-01T00:33:38;98958.31;;;15.82;86.37
75312;BME280;63906;55.686;37.532;2023-08-01T00:38:39;98963.06;;;15.80;86.31
75312;BME280;63906;55.686;37.532;2023-08-01T00:43:39;98956.88;;;15.74;86.50
75312;BME280;63906;55.686;37.532;2023-08-01T00:48:40;98927.06;;;15.55;86.65
75312;BME280;63906;55.686;37.532;2023-08-01T00:53:40;98965.53;;;15.70;86.92
75312;BME280;63906;55.686;37.532;2023-08-01T00:58:41;98948.84;;;15.57;86.91
75312;BME280;63906;55.686;37.532;2023-08-01T01:03:41;98978.72;;;15.65;87.11
75312;BME280;63906;55.686;37.532;2023-08-01T01:08:42;98964.31;;;15.60;87.01
75312;BME280;63906;55.686;37.532;2023-08-01T01:13:43;98972.94;;;15.68;87.44
75312;BME280;63906;55.686;37.532;2023-08-01T01:18:43;98973.41;;;15.65;87.26
75312;BME280;63906;55.686;37.532;2023-08-01T01:23:44;98979.63;;;15.58;87.25
75312;BME280;63906;55.686;37.532;2023-08-01T01:28:45;98975.97;;;15.59;87.42
75312;BME280;63906;55.686;37.532;2023-08-01T01:33:45;98972.41;;;15.54;87.39
75312;BME280;63906;55.686;37.532;2023-08-01T01:38:46;98952.75;;;15.38;87.54
75312;BME280;63906;55.686;37.532;2023-08-01T01:43:47;98994.63;;;15.65;87.33
75312;BME280;63906;55.686;37.532;2023-08-01T01:48:47;98979.31;;;15.55;87.21
75312;BME280;63906;55.686;37.532;2023-08-01T01:53:48;98968.19;;;15.41;87.93
75312;BME280;63906;55.686;37.532;2023-08-01T01:58:48;98983.81;;;15.54;87.58
75312;BME280;63906;55.686;37.532;2023-08-01T02:03:49;98984.38;;;15.56;87.58
75312;BME280;63906;55.686;37.532;2023-08-01T02:08:49;98979.06;;;15.56;87.79
75312;BME280;63906;55.686;37.532;2023-08-01T02:13:50;98981.81;;;15.61;88.07
75312;BME280;63906;55.686;37.532;2023-08-01T02:18:50;98981.03;;;15.61;87.89
75312;BME280;63906;55.686;37.532;2023-08-01T02:23:51;98980.81;;;15.63;88.16
75312;BME280;63906;55.686;37.532;2023-08-01T02:28:51;98978.25;;;15.68;87.78
75312;BME280;63906;55.686;37.532;2023-08-01T02:33:52;98982.25;;;15.70;88.26
75312;BME280;63906;55.686;37.532;2023-08-01T02:38:52;98988.00;;;15.79;88.27
75312;BME280;63906;55.686;37.532;2023-08-01T02:43:53;98983.25;;;15.81;88.05
75312;BME280;63906;55.686;37.532;2023-08-01T02:48:54;98957.13;;;15.73;88.08
75312;BME280;63906;55.686;37.532;2023-08-01T02:53:54;98979.25;;;15.95;87.84
75312;BME280;63906;55.686;37.532;2023-08-01T02:58:55;98983.53;;;15.96;87.92
75312;BME280;63906;55.686;37.532;2023-08-01T03:03:56;98991.16;;;16.09;87.88
75312;BME280;63906;55.686;37.532;2023-08-01T03:08:56;98998.38;;;16.14;88.38
75312;BME280;63906;55.686;37.532;2023-08-01T03:13:57;99009.19;;;16.24;88.10
75312;BME280;63906;55.686;37.532;2023-08-01T03:18:57;99004.84;;;16.35;87.94
75312;BME280;63906;55.686;37.532;2023-08-01T03:23:59;99006.28;;;16.42;87.93
75312;BME280;63906;55.686;37.532;2023-08-01T03:29:00;98999.13;;;16.43;87.70
75312;BME280;63906;55.686;37.532;2023-08-01T03:34:00;98988.56;;;16.48;87.77
75312;BME280;63906;55.686;37.532;2023-08-01T03:39:02;99004.50;;;16.65;87.71
75312;BME280;63906;55.686;37.532;2023-08-01T03:44:04;99001.91;;;16.70;87.50
75312;BME280;63906;55.686;37.532;2023-08-01T03:49:04;99003.13;;;16.79;87.29
75312;BME280;63906;55.686;37.532;2023-08-01T03:54:05;99011.06;;;16.96;87.27
75312;BME280;63906;55.686;37.532;2023-08-01T03:59:05;99017.22;;;17.02;87.07
75312;BME280;63906;55.686;37.532;2023-08-01T04:04:06;99020.03;;;17.12;87.03
75312;BME280;63906;55.686;37.532;2023-08-01T04:09:07;99013.72;;;17.18;86.85
75312;BME280;63906;55.686;37.532;2023-08-01T04:14:08;99037.09;;;17.38;86.72
75312;BME280;63906;55.686;37.532;2023-08-01T04:19:08;99031.69;;;17.55;86.86
75312;BME280;63906;55.686;37.532;2023-08-01T04:24:10;99028.09;;;17.66;86.63
75312;BME280;63906;55.686;37.532;2023-08-01T04:29:10;99035.03;;;17.89;86.37
75312;BME280;63906;55.686;37.532;2023-08-01T04:34:11;99033.03;;;18.06;86.28
75312;BME280;63906;55.686;37.532;2023-08-01T04:39:11;99018.28;;;18.25;85.61
75312;BME280;63906;55.686;37.532;2023-08-01T04:44:11;99018.94;;;18.43;85.51
75312;BME280;63906;55.686;37.532;2023-08-01T04:49:12;99029.97;;;18.99;83.45
75312;BME280;63906;55.686;37.532;2023-08-01T04:54:12;99015.69;;;19.25;81.70
75312;BME280;63906;55.686;37.532;2023-08-01T04:59:13;99029.50;;;19.70;80.39
75312;BME280;63906;55.686;37.532;2023-08-01T05:04:16;99027.09;;;19.94;80.41
75312;BME280;63906;55.686;37.532;2023-08-01T05:09:18;99027.13;;;20.04;79.71
75312;BME280;63906;55.686;37.532;2023-08-01T05:14:18;99024.19;;;20.10;79.45
75312;BME280;63906;55.686;37.532;2023-08-01T05:19:19;99031.13;;;20.16;79.05
75312;BME280;63906;55.686;37.532;2023-08-01T05:24:19;99032.47;;;20.29;78.11
75312;BME280;63906;55.686;37.532;2023-08-01T05:29:20;99037.31;;;20.48;76.95
75312;BME280;63906;55.686;37.532;2023-08-01T05:34:23;99019.66;;;20.47;76.45
75312;BME280;63906;55.686;37.532;2023-08-01T05:39:23;99043.59;;;21.13;69.68
75312;BME280;63906;55.686;37.532;2023-08-01T05:44:24;99047.00;;;21.44;68.95
75312;BME280;63906;55.686;37.532;2023-08-01T05:49:24;99048.72;;;21.69;67.53
75312;BME280;63906;55.686;37.532;2023-08-01T05:54:25;99005.34;;;21.67;65.78
75312;BME280;63906;55.686;37.532;2023-08-01T05:59:25;99031.38;;;22.00;63.58
75312;BME280;63906;55.686;37.532;2023-08-01T06:04:27;99066.53;;;22.33;62.62
75312;BME280;63906;55.686;37.532;2023-08-01T06:09:27;99045.44;;;22.21;62.29
75312;BME280;63906;55.686;37.532;2023-08-01T06:14:28;99062.59;;;22.25;62.45
75312;BME280;63906;55.686;37.532;2023-08-01T06:19:28;99061.34;;;22.08;63.48
75312;BME280;63906;55.686;37.532;2023-08-01T06:24:29;99064.22;;;21.77;65.44
75312;BME280;63906;55.686;37.532;2023-08-01T06:29:29;99060.94;;;21.36;67.18
75312;BME280;63906;55.686;37.532;2023-08-01T06:34:30;99050.03;;;21.07;68.70
75312;BME280;63906;55.686;37.532;2023-08-01T06:39:30;99055.94;;;21.04;68.81
75312;BME280;63906;55.686;37.532;2023-08-01T06:44:31;99070.38;;;21.13;68.98
75312;BME280;63906;55.686;37.532;2023-08-01T06:49:31;99063.94;;;21.19;68.10
75312;BME280;63906;55.686;37.532;2023-08-01T06:54:32;99072.41;;;21.41;66.98
75312;BME280;63906;55.686;37.532;2023-08-01T06:59:32;99062.06;;;21.79;65.05
75312;BME280;63906;55.686;37.532;2023-08-01T07:04:33;99058.13;;;22.11;63.35
75312;BME280;63906;55.686;37.532;2023-08-01T07:09:34;99056.00;;;22.13;64.08
75312;BME280;63906;55.686;37.532;2023-08-01T07:14:35;99058.28;;;22.58;59.17
75312;BME280;63906;55.686;37.532;2023-08-01T07:19:36;99056.84;;;23.00;58.46
75312;BME280;63906;55.686;37.532;2023-08-01T07:24:36;99035.47;;;22.85;59.15
75312;BME280;63906;55.686;37.532;2023-08-01T07:29:37;99059.88;;;23.18;58.70
75312;BME280;63906;55.686;37.532;2023-08-01T07:34:37;99066.03;;;23.42;57.42
75312;BME280;63906;55.686;37.532;2023-08-01T07:39:38;99064.94;;;23.43;58.12
75312;BME280;63906;55.686;37.532;2023-08-01T07:44:38;99064.78;;;23.53;58.36
75312;BME280;63906;55.686;37.532;2023-08-01T07:49:39;99058.53;;;23.82;56.60
75312;BME280;63906;55.686;37.532;2023-08-01T07:54:39;99028.66;;;23.83;58.14
75312;BME280;63906;55.686;37.532;2023-08-01T07:59:40;99046.03;;;24.10;59.86
75312;BME280;63906;55.686;37.532;2023-08-01T08:04:40;99054.31;;;23.95;59.44
75312;BME280;63906;55.686;37.532;2023-08-01T08:09:41;99059.38;;;23.96;60.80
75312;BME280;63906;55.686;37.532;2023-08-01T08:14:41;99057.94;;;24.04;59.42
75312;BME280;63906;55.686;37.532;2023-08-01T08:19:42;99052.19;;;24.10;56.40
75312;BME280;63906;55.686;37.532;2023-08-01T08:24:42;99057.25;;;24.31;55.05
75312;BME280;63906;55.686;37.532;2023-08-01T08:29:43;99046.78;;;24.62;53.51
75312;BME280;63906;55.686;37.532;2023-08-01T08:34:43;99015.59;;;24.75;51.49
75312;BME280;63906;55.686;37.532;2023-08-01T08:39:44;99046.66;;;25.13;51.67
75312;BME280;63906;55.686;37.532;2023-08-01T08:44:48;99043.69;;;25.29;51.17
75312;BME280;63906;55.686;37.532;2023-08-01T08:49:50;99042.00;;;25.69;50.34
75312;BME280;63906;55.686;37.532;2023-08-01T08:54:51;99041.22;;;26.04;50.09
75312;BME280;63906;55.686;37.532;2023-08-01T08:59:52;99022.44;;;26.44;49.64
75312;BME280;63906;55.686;37.532;2023-08-01T09:04:53;99039.19;;;26.95;50.77
75312;BME280;63906;55.686;37.532;2023-08-01T09:09:53;99037.25;;;27.18;48.70
75312;BME280;63906;55.686;37.532;2023-08-01T09:14:56;99013.16;;;26.90;49.52
75312;BME280;63906;55.686;37.532;2023-08-01T09:20:04;99030.06;;;26.73;50.12
75312;BME280;63906;55.686;37.532;2023-08-01T09:25:06;99015.88;;;26.99;47.77
75312;BME280;63906;55.686;37.532;2023-08-01T09:30:10;99026.50;;;27.44;44.17
75312;BME280;63906;55.686;37.532;2023-08-01T09:35:16;99017.81;;;27.73;43.79
75312;BME280;63906;55.686;37.532;2023-08-01T09:40:16;99009.47;;;28.30;43.45
75312;BME280;63906;55.686;37.532;2023-08-01T09:45:18;98980.06;;;28.11;42.60
75312;BME280;63906;55.686;37.532;2023-08-01T09:50:23;99013.38;;;28.67;41.67
75312;BME280;63906;55.686;37.532;2023-08-01T09:55:34;99008.66;;;28.93;41.52
75312;BME280;63906;55.686;37.532;2023-08-01T10:00:35;98997.34;;;28.91;40.70
75312;BME280;63906;55.686;37.532;2023-08-01T10:05:35;99016.00;;;29.73;39.87
75312;BME280;63906;55.686;37.532;2023-08-01T10:10:36;99009.44;;;30.98;36.77
75312;BME280;63906;55.686;37.532;2023-08-01T10:15:37;99013.31;;;32.30;35.40
75312;BME280;63906;55.686;37.532;2023-08-01T10:20:38;99013.56;;;32.37;33.23
75312;BME280;63906;55.686;37.532;2023-08-01T10:25:39;98995.53;;;34.47;32.62
75312;BME280;63906;55.686;37.532;2023-08-01T10:30:40;98988.97;;;35.27;29.19
75312;BME280;63906;55.686;37.532;2023-08-01T10:35:41;98988.06;;;36.47;27.35
75312;BME280;63906;55.686;37.532;2023-08-01T10:40:42;98984.25;;;36.59;25.78
75312;BME280;63906;55.686;37.532;2023-08-01T10:45:43;98977.97;;;38.04;25.54
75312;BME280;63906;55.686;37.532;2023-08-01T10:50:54;98957.03;;;40.23;22.71
75312;BME280;63906;55.686;37.532;2023-08-01T10:55:55;98969.94;;;42.18;19.88
75312;BME280;63906;55.686;37.532;2023-08-01T11:00:58;98973.97;;;42.60;18.93
75312;BME280;63906;55.686;37.532;2023-08-01T11:05:59;98963.31;;;43.25;18.28
75312;BME280;63906;55.686;37.532;2023-08-01T11:11:00;98964.44;;;43.08;19.03
75312;BME280;63906;55.686;37.532;2023-08-01T11:16:04;98967.84;;;38.47;22.14
75312;BME280;63906;55.686;37.532;2023-08-01T11:21:06;98971.50;;;34.56;25.96
75312;BME280;63906;55.686;37.532;2023-08-01T11:26:08;98943.19;;;32.27;29.21
75312;BME280;63906;55.686;37.532;2023-08-01T11:31:12;98981.34;;;31.83;30.40
75312;BME280;63906;55.686;37.532;2023-08-01T11:36:13;98956.09;;;33.44;29.54
75312;BME280;63906;55.686;37.532;2023-08-01T11:41:13;98915.25;;;32.93;29.68
75312;BME280;63906;55.686;37.532;2023-08-01T11:46:14;98953.75;;;31.84;31.12
75312;BME280;63906;55.686;37.532;2023-08-01T11:51:14;98946.56;;;31.12;32.58
75312;BME280;63906;55.686;37.532;2023-08-01T11:56:21;98948.50;;;35.10;29.61
75312;BME280;63906;55.686;37.532;2023-08-01T12:01:22;98934.84;;;35.74;28.35
75312;BME280;63906;55.686;37.532;2023-08-01T12:06:23;98937.41;;;34.27;28.55
75312;BME280;63906;55.686;37.532;2023-08-01T12:11:25;98937.03;;;32.30;31.00
75312;BME280;63906;55.686;37.532;2023-08-01T12:16:31;98934.31;;;31.18;32.22
75312;BME280;63906;55.686;37.532;2023-08-01T12:21:32;98917.94;;;31.98;31.06
75312;BME280;63906;55.686;37.532;2023-08-01T12:26:33;98922.38;;;31.47;31.46
75312;BME280;63906;55.686;37.532;2023-08-01T12:31:34;98931.56;;;31.42;31.45
75312;BME280;63906;55.686;37.532;2023-08-01T12:36:34;98915.81;;;30.83;32.49
75312;BME280;63906;55.686;37.532;2023-08-01T12:41:38;98915.19;;;35.34;27.21
75312;BME280;63906;55.686;37.532;2023-08-01T12:46:39;98914.72;;;34.23;27.04
75312;BME280;63906;55.686;37.532;2023-08-01T12:51:39;98911.88;;;32.84;29.34
75312;BME280;63906;55.686;37.532;2023-08-01T12:56:40;98912.34;;;34.71;27.19
75312;BME280;63906;55.686;37.532;2023-08-01T13:01:40;98913.75;;;36.63;24.59
75312;BME280;63906;55.686;37.532;2023-08-01T13:06:41;98912.06;;;38.33;23.66
75312;BME280;63906;55.686;37.532;2023-08-01T13:11:41;98895.84;;;37.74;23.10
75312;BME280;63906;55.686;37.532;2023-08-01T13:16:43;98899.13;;;37.07;24.12
75312;BME280;63906;55.686;37.532;2023-08-01T13:21:44;98897.97;;;34.77;26.26
75312;BME280;63906;55.686;37.532;2023-08-01T13:26:44;98906.47;;;34.42;26.90
75312;BME280;63906;55.686;37.532;2023-08-01T13:31:45;98892.69;;;35.85;26.41
75312;BME280;63906;55.686;37.532;2023-08-01T13:36:45;98889.03;;;37.32;24.83
75312;BME280;63906;55.686;37.532;2023-08-01T13:41:46;98883.13;;;36.57;25.09
75312;BME280;63906;55.686;37.532;2023-08-01T13:46:46;98887.94;;;35.12;27.02
75312;BME280;63906;55.686;37.532;2023-08-01T13:51:47;98877.69;;;33.83;28.66
75312;BME280;63906;55.686;37.532;2023-08-01T13:56:47;98880.66;;;33.94;28.09
75312;BME280;63906;55.686;37.532;2023-08-01T14:01:48;98857.53;;;33.68;28.14
75312;BME280;63906;55.686;37.532;2023-08-01T14:06:48;98885.53;;;32.88;29.31
75312;BME280;63906;55.686;37.532;2023-08-01T14:11:49;98874.41;;;33.93;28.27
75312;BME280;63906;55.686;37.532;2023-08-01T14:16:50;98872.84;;;33.34;29.34
75312;BME280;63906;55.686;37.532;2023-08-01T14:21:50;98883.28;;;31.95;31.56
75312;BME280;63906;55.686;37.532;2023-08-01T14:26:51;98876.13;;;31.06;32.73
75312;BME280;63906;55.686;37.532;2023-08-01T14:31:51;98877.53;;;30.51;33.79
75312;BME280;63906;55.686;37.532;2023-08-01T14:36:52;98879.16;;;29.83;35.22
75312;BME280;63906;55.686;37.532;2023-08-01T14:41:52;98877.94;;;29.17;36.33
75312;BME280;63906;55.686;37.532;2023-08-01T14:46:53;98874.69;;;28.82;36.56
75312;BME280;63906;55.686;37.532;2023-08-01T14:51:54;98871.47;;;28.21;37.87
75312;BME280;63906;55.686;37.532;2023-08-01T14:56:55;98868.72;;;27.57;39.37
75312;BME280;63906;55.686;37.532;2023-08-01T15:01:55;98866.69;;;27.02;40.18
75312;BME280;63906;55.686;37.532;2023-08-01T15:06:56;98886.63;;;26.75;41.81
75312;BME280;63906;55.686;37.532;2023-08-01T15:11:56;98869.25;;;26.41;42.69
75312;BME280;63906;55.686;37.532;2023-08-01T15:16:57;98885.53;;;26.36;43.19
75312;BME280;63906;55.686;37.532;2023-08-01T15:22:01;98858.06;;;25.94;44.84
75312;BME280;63906;55.686;37.532;2023-08-01T15:27:02;98889.16;;;25.92;45.05
75312;BME280;63906;55.686;37.532;2023-08-01T15:32:03;98892.75;;;25.65;45.83
75312;BME280;63906;55.686;37.532;2023-08-01T15:37:07;98808.88;;;24.99;47.46
75312;BME280;63906;55.686;37.532;2023-08-01T15:42:07;98901.50;;;25.48;47.09
75312;BME280;63906;55.686;37.532;2023-08-01T15:47:08;98903.22;;;25.44;47.01
75312;BME280;63906;55.686;37.532;2023-08-01T15:52:11;98914.38;;;25.29;47.79
75312;BME280;63906;55.686;37.532;2023-08-01T15:57:12;98895.25;;;25.16;49.26
75312;BME280;63906;55.686;37.532;2023-08-01T16:02:12;98913.44;;;25.33;48.80
75312;BME280;63906;55.686;37.532;2023-08-01T16:07:13;98874.75;;;25.15;48.15
75312;BME280;63906;55.686;37.532;2023-08-01T16:12:13;98931.59;;;25.28;49.70
75312;BME280;63906;55.686;37.532;2023-08-01T16:17:14;98922.38;;;25.06;49.71
75312;BME280;63906;55.686;37.532;2023-08-01T16:22:14;98919.28;;;24.99;49.50
75312;BME280;63906;55.686;37.532;2023-08-01T16:27:15;98933.53;;;25.00;49.60
75312;BME280;63906;55.686;37.532;2023-08-01T16:32:15;98900.78;;;24.56;50.05
75312;BME280;63906;55.686;37.532;2023-08-01T16:37:16;98939.94;;;24.35;51.00
75312;BME280;63906;55.686;37.532;2023-08-01T16:42:16;98925.66;;;23.50;54.39
75312;BME280;63906;55.686;37.532;2023-08-01T16:47:17;98931.69;;;23.04;57.84
75312;BME280;63906;55.686;37.532;2023-08-01T16:52:18;98908.75;;;22.45;64.90
75312;BME280;63906;55.686;37.532;2023-08-01T16:57:18;98921.75;;;22.33;68.13
75312;BME280;63906;55.686;37.532;2023-08-01T17:02:19;98915.59;;;22.33;64.96
75312;BME280;63906;55.686;37.532;2023-08-01T17:07:19;98922.41;;;22.20;69.91
75312;BME280;63906;55.686;37.532;2023-08-01T17:12:20;98909.44;;;21.98;72.74
75312;BME280;63906;55.686;37.532;2023-08-01T17:17:21;98948.72;;;22.18;73.55
75312;BME280;63906;55.686;37.532;2023-08-01T17:22:22;98969.53;;;22.26;73.29
75312;BME280;63906;55.686;37.532;2023-08-01T17:27:26;98965.13;;;22.40;76.98
75312;BME280;63906;55.686;37.532;2023-08-01T17:32:27;98973.53;;;22.28;74.10
75312;BME280;63906;55.686;37.532;2023-08-01T17:37:27;98995.78;;;22.29;72.46
75312;BME280;63906;55.686;37.532;2023-08-01T17:42:28;98980.88;;;22.18;76.74
75312;BME280;63906;55.686;37.532;2023-08-01T17:47:28;99002.91;;;22.10;77.69
75312;BME280;63906;55.686;37.532;2023-08-01T17:52:32;98982.69;;;21.88;81.08
75312;BME280;63906;55.686;37.532;2023-08-01T17:57:32;98996.19;;;21.73;81.37
75312;BME280;63906;55.686;37.532;2023-08-01T18:02:33;98995.25;;;21.54;78.76
75312;BME280;63906;55.686;37.532;2023-08-01T18:07:33;99003.00;;;21.55;81.83
75312;BME280;63906;55.686;37.532;2023-08-01T18:12:34;98995.63;;;21.32;81.39
75312;BME280;63906;55.686;37.532;2023-08-01T18:17:34;98993.75;;;21.32;81.40
75312;BME280;63906;55.686;37.532;2023-08-01T18:22:35;98993.78;;;21.22;81.57
75312;BME280;63906;55.686;37.532;2023-08-01T18:27:35;98970.28;;;21.09;81.20
75312;BME280;63906;55.686;37.532;2023-08-01T18:32:36;98992.72;;;21.18;77.64
75312;BME280;63906;55.686;37.532;2023-08-01T18:37:36;98993.78;;;21.17;83.67
75312;BME280;63906;55.686;37.532;2023-08-01T18:42:37;99000.28;;;21.01;83.78
75312;BME280;63906;55.686;37.532;2023-08-01T18:47:38;98984.91;;;20.57;81.18
75312;BME280;63906;55.686;37.532;2023-08-01T18:52:39;98979.53;;;20.41;85.67
75312;BME280;63906;55.686;37.532;2023-08-01T18:57:45;98969.66;;;20.11;86.55
75312;BME280;63906;55.686;37.532;2023-08-01T19:02:46;98976.63;;;19.97;87.40
75312;BME280;63906;55.686;37.532;2023-08-01T19:07:46;99002.28;;;19.88;87.83
75312;BME280;63906;55.686;37.532;2023-08-01T19:12:50;99000.63;;;19.72;89.51
75312;BME280;63906;55.686;37.532;2023-08-01T19:17:51;99004.09;;;19.62;89.40
75312;BME280;63906;55.686;37.532;2023-08-01T19:22:54;99005.72;;;19.63;90.46
75312;BME280;63906;55.686;37.532;2023-08-01T19:27:54;98997.94;;;19.56;88.11
75312;BME280;63906;55.686;37.532;2023-08-01T19:32:55;98998.22;;;19.65;90.28
75312;BME280;63906;55.686;37.532;2023-08-01T19:37:55;98997.34;;;19.44;90.57
75312;BME280;63906;55.686;37.532;2023-08-01T19:42:56;99018.19;;;19.47;91.06
75312;BME280;63906;55.686;37.532;2023-08-01T19:47:56;99009.81;;;19.23;91.30
75312;BME280;63906;55.686;37.532;2023-08-01T19:52:57;98996.97;;;19.10;91.50
75312;BME280;63906;55.686;37.532;2023-08-01T19:57:59;99006.53;;;19.06;91.94
75312;BME280;63906;55.686;37.532;2023-08-01T20:03:00;99003.59;;;19.02;92.08
75312;BME280;63906;55.686;37.532;2023-08-01T20:08:00;99018.78;;;18.97;91.96
75312;BME280;63906;55.686;37.532;2023-08-01T20:13:01;99012.31;;;18.82;92.71
75312;BME280;63906;55.686;37.532;2023-08-01T20:18:01;99037.41;;;18.92;92.53
75312;BME280;63906;55.686;37.532;2023-08-01T20:23:02;99027.50;;;18.82;93.08
75312;BME280;63906;55.686;37.532;2023-08-01T20:28:05;99029.88;;;18.78;93.12
75312;BME280;63906;55.686;37.532;2023-08-01T20:33:06;99036.78;;;18.74;93.06
75312;BME280;63906;55.686;37.532;2023-08-01T20:38:06;99043.22;;;18.78;94.04
75312;BME280;63906;55.686;37.532;2023-08-01T20:43:07;99014.78;;;18.57;93.85
75312;BME280;63906;55.686;37.532;2023-08-01T20:48:08;99024.34;;;18.53;94.04
75312;BME280;63906;55.686;37.532;2023-08-01T20:53:08;99039.91;;;18.66;93.88
75312;BME280;63906;55.686;37.532;2023-08-01T20:58:09;99038.78;;;18.57;93.88
75312;BME280;63906;55.686;37.532;2023-08-01T21:03:09;99049.75;;;18.66;94.07
75312;BME280;63906;55.686;37.532;2023-08-01T21:08:10;99009.31;;;18.37;94.33
75312;BME280;63906;55.686;37.532;2023-08-01T21:13:10;99022.44;;;18.48;94.50
75312;BME280;63906;55.686;37.532;2023-08-01T21:18:11;99007.22;;;18.39;94.64
75312;BME280;63906;55.686;37.532;2023-08-01T21:23:11;99033.16;;;18.53;94.69
75312;BME280;63906;55.686;37.532;2023-08-01T21:28:12;99036.84;;;18.47;94.84
75312;BME280;63906;55.686;37.532;2023-08-01T21:33:12;99049.41;;;18.52;94.91
75312;BME280;63906;55.686;37.532;2023-08-01T21:38:13;99033.34;;;18.42;95.07
75312;BME280;63906;55.686;37.532;2023-08-01T21:43:13;99030.66;;;18.42;94.74
75312;BME280;63906;55.686;37.532;2023-08-01T21:48:14;99027.69;;;18.33;94.89
75312;BME280;63906;55.686;37.532;2023-08-01T21:53:14;99039.09;;;18.28;94.88
75312;BME280;63906;55.686;37.532;2023-08-01T21:58:15;99044.44;;;18.28;95.35
75312;BME280;63906;55.686;37.532;2023-08-01T22:03:15;99044.91;;;18.25;95.48
75312;BME280;63906;55.686;37.532;2023-08-01T22:08:16;99042.22;;;18.20;95.35
75312;BME280;63906;55.686;37.532;2023-08-01T22:13:16;99043.25;;;18.19;95.56
75312;BME280;63906;55.686;37.532;2023-08-01T22:18:17;98986.47;;;17.82;95.49
75312;BME280;63906;55.686;37.532;2023-08-01T22:23:23;99052.88;;;18.20;95.68
75312;BME280;63906;55.686;37.532;2023-08-01T22:28:29;98980.81;;;17.73;95.68
75312;BME280;63906;55.686;37.532;2023-08-01T22:33:31;99045.75;;;17.99;95.51
75312;BME280;63906;55.686;37.532;2023-08-01T22:38:31;99046.81;;;17.98;95.86
75312;BME280;63906;55.686;37.532;2023-08-01T22:43:31;99039.84;;;17.92;95.60
75312;BME280;63906;55.686;37.532;2023-08-01T22:48:32;99049.69;;;17.91;95.88
75312;BME280;63906;55.686;37.532;2023-08-01T22:53:32;99048.03;;;17.85;95.94
75312;BME280;63906;55.686;37.532;2023-08-01T22:58:33;99053.94;;;17.92;96.14
75312;BME280;63906;55.686;37.532;2023-08-01T23:03:37;99048.81;;;17.86;96.26
75312;BME280;63906;55.686;37.532;2023-08-01T23:08:38;99045.03;;;17.82;95.85
75312;BME280;63906;55.686;37.532;2023-08-01T23:13:38;99046.84;;;17.76;95.91
75312;BME280;63906;55.686;37.532;2023-08-01T23:18:39;99039.63;;;17.71;96.38
75312;BME280;63906;55.686;37.532;2023-08-01T23:23:40;99041.66;;;17.64;96.21
75312;BME280;63906;55.686;37.532;2023-08-01T23:28:40;99046.41;;;17.62;96.61
75312;BME280;63906;55.686;37.532;2023-08-01T23:33:41;99008.44;;;17.45;96.61
75312;BME280;63906;55.686;37.532;2023-08-01T23:38:41;99046.22;;;17.69;96.75
75312;BME280;63906;55.686;37.532;2023-08-01T23:43:42;99047.72;;;17.60;96.61
75312;BME280;63906;55.686;37.532;2023-08-01T23:48:42;99038.94;;;17.59;96.51
75312;BME280;63906;55.686;37.532;2023-08-01T23:53:43;99033.56;;;17.54;96.53
75312;BME280;63906;55.686;37.532;2023-08-01T23:58:43;99047.72;;;17.60;96.50
